sensor_id;sensor_type;location;lat;lon;timestamp;pressure;altitude;pressure_sealevel;temperature;humidity
929;BME280;451;47.988;7.842;2023-04-08T00:07:12;98808.25;;;8.20;100.00
929;BME280;451;47.988;7.842;2023-04-08T00:16:16;98809.00;;;8.75;100.00
929;BME280;451;47.988;7.842;2023-04-08T00:25:20;98800.03;;;8.60;100.00
929;BME280;451;47.988;7.842;2023-04-08T00:34:23;98809.25;;;8.99;100.00
929;BME280;451;47.988;7.842;2023-04-08T00:43:28;98769.56;;;8.41;100.00
929;BME280;451;47.988;7.842;2023-04-08T00:52:31;98816.25;;;8.45;100.00
929;BME280;451;47.988;7.842;2023-04-08T01:01:42;98812.13;;;7.51;100.00
929;BME280;451;47.988;7.842;2023-04-08T01:10:50;98810.00;;;8.01;100.00
929;BME280;451;47.988;7.842;2023-04-08T01:19:59;98814.19;;;7.57;100.00
929;BME280;451;47.988;7.842;2023-04-08T01:29:06;98783.97;;;7.73;100.00
929;BME280;451;47.988;7.842;2023-04-08T01:38:14;98820.16;;;7.40;100.00
929;BME280;451;47.988;7.842;2023-04-08T01:47:20;98802.88;;;7.01;100.00
929;BME280;451;47.988;7.842;2023-04-08T01:56:27;98798.50;;;6.72;100.00
929;BME280;451;47.988;7.842;2023-04-08T02:05:32;98808.06;;;7.20;100.00
929;BME280;451;47.988;7.842;2023-04-08T02:14:38;98795.13;;;7.18;100.00
929;BME280;451;47.988;7.842;2023-04-08T02:23:46;98826.91;;;7.43;100.00
929;BME280;451;47.988;7.842;2023-04-08T02:32:52;98816.28;;;7.81;100.00
929;BME280;451;47.988;7.842;2023-04-08T02:41:57;98798.66;;;8.10;100.00
929;BME280;451;47.988;7.842;2023-04-08T02:51:00;98818.31;;;8.24;100.00
929;BME280;451;47.988;7.842;2023-04-08T03:00:06;98825.72;;;8.01;100.00
929;BME280;451;47.988;7.842;2023-04-08T03:09:09;98815.97;;;8.21;100.00
929;BME280;451;47.988;7.842;2023-04-08T03:18:14;98733.53;;;7.16;100.00
929;BME280;451;47.988;7.842;2023-04-08T03:27:17;98810.63;;;8.13;100.00
929;BME280;451;47.988;7.842;2023-04-08T03:36:21;98751.75;;;7.35;100.00
929;BME280;451;47.988;7.842;2023-04-08T03:45:25;98820.03;;;7.79;100.00
929;BME280;451;47.988;7.842;2023-04-08T03:54:29;98815.06;;;7.85;100.00
929;BME280;451;47.988;7.842;2023-04-08T04:03:32;98779.38;;;7.47;100.00
929;BME280;451;47.988;7.842;2023-04-08T04:12:37;98726.38;;;7.18;100.00
929;BME280;451;47.988;7.842;2023-04-08T04:21:40;98778.66;;;7.18;100.00
929;BME280;451;47.988;7.842;2023-04-08T04:30:45;98806.63;;;7.54;100.00
929;BME280;451;47.988;7.842;2023-04-08T04:39:48;98835.94;;;7.95;100.00
929;BME280;451;47.988;7.842;2023-04-08T04:48:52;98758.47;;;7.38;100.00
929;BME280;451;47.988;7.842;2023-04-08T04:57:55;98856.09;;;8.12;100.00
929;BME280;451;47.988;7.842;2023-04-08T05:07:00;98860.22;;;8.52;100.00
929;BME280;451;47.988;7.842;2023-04-08T05:16:03;98819.66;;;8.56;100.00
929;BME280;451;47.988;7.842;2023-04-08T05:25:08;98862.00;;;8.24;100.00
929;BME280;451;47.988;7.842;2023-04-08T05:34:12;98872.38;;;8.88;100.00
929;BME280;451;47.988;7.842;2023-04-08T05:43:17;98880.63;;;9.11;100.00
929;BME280;451;47.988;7.842;2023-04-08T05:52:20;98865.88;;;8.74;100.00
929;BME280;451;47.988;7.842;2023-04-08T06:01:25;98869.59;;;8.72;100.00
929;BME280;451;47.988;7.842;2023-04-08T06:10:28;98895.88;;;8.35;100.00
929;BME280;451;47.988;7.842;2023-04-08T06:19:32;98921.97;;;8.54;100.00
929;BME280;451;47.988;7.842;2023-04-08T06:28:35;98915.81;;;9.44;100.00
929;BME280;451;47.988;7.842;2023-04-08T06:37:39;98900.09;;;9.08;100.00
929;BME280;451;47.988;7.842;2023-04-08T06:46:42;98925.09;;;9.56;100.00
929;BME280;451;47.988;7.842;2023-04-08T06:55:47;98930.09;;;9.23;100.00
929;BME280;451;47.988;7.842;2023-04-08T07:04:49;98881.88;;;9.07;100.00
929;BME280;451;47.988;7.842;2023-04-08T07:13:54;98946.66;;;10.11;97.61
929;BME280;451;47.988;7.842;2023-04-08T07:22:57;98937.88;;;10.54;94.38
929;BME280;451;47.988;7.842;2023-04-08T07:32:01;98943.66;;;11.72;85.03
929;BME280;451;47.988;7.842;2023-04-08T07:41:04;98945.47;;;11.88;84.35
929;BME280;451;47.988;7.842;2023-04-08T07:50:09;98933.28;;;12.59;80.36
929;BME280;451;47.988;7.842;2023-04-08T07:59:12;98937.09;;;12.87;79.10
929;BME280;451;47.988;7.842;2023-04-08T08:08:17;98941.94;;;13.06;75.01
929;BME280;451;47.988;7.842;2023-04-08T08:17:20;98883.13;;;12.67;74.90
929;BME280;451;47.988;7.842;2023-04-08T08:26:24;98945.84;;;13.18;75.28
929;BME280;451;47.988;7.842;2023-04-08T08:35:27;98976.84;;;12.38;77.55
929;BME280;451;47.988;7.842;2023-04-08T08:44:31;98976.09;;;12.13;80.87
929;BME280;451;47.988;7.842;2023-04-08T08:53:34;98966.56;;;12.68;78.29
929;BME280;451;47.988;7.842;2023-04-08T09:02:39;98964.84;;;12.75;78.23
929;BME280;451;47.988;7.842;2023-04-08T09:11:43;98981.34;;;13.08;77.28
929;BME280;451;47.988;7.842;2023-04-08T09:20:52;98984.72;;;13.32;74.87
929;BME280;451;47.988;7.842;2023-04-08T09:30:12;98938.41;;;12.91;75.80
929;BME280;451;47.988;7.842;2023-04-08T09:39:16;98977.75;;;14.67;68.48
929;BME280;451;47.988;7.842;2023-04-08T09:48:23;98921.88;;;12.19;74.76
929;BME280;451;47.988;7.842;2023-04-08T09:57:39;98990.66;;;13.80;70.63
929;BME280;451;47.988;7.842;2023-04-08T10:06:42;98973.88;;;13.19;72.49
929;BME280;451;47.988;7.842;2023-04-08T10:15:46;99015.19;;;13.04;74.26
929;BME280;451;47.988;7.842;2023-04-08T10:34:27;99009.00;;;10.95;100.00
929;BME280;451;47.988;7.842;2023-04-08T10:43:32;98984.22;;;10.63;100.00
929;BME280;451;47.988;7.842;2023-04-08T10:52:45;98994.94;;;11.12;100.00
929;BME280;451;47.988;7.842;2023-04-08T11:01:48;98965.72;;;11.88;100.00
929;BME280;451;47.988;7.842;2023-04-08T11:10:52;98978.84;;;12.83;100.00
929;BME280;451;47.988;7.842;2023-04-08T11:19:56;98975.25;;;13.15;100.00
929;BME280;451;47.988;7.842;2023-04-08T11:29:05;98968.59;;;13.88;93.87
929;BME280;451;47.988;7.842;2023-04-08T11:38:08;98957.50;;;13.92;80.75
929;BME280;451;47.988;7.842;2023-04-08T11:47:13;98970.00;;;13.98;73.43
929;BME280;451;47.988;7.842;2023-04-08T11:56:17;98994.16;;;15.27;67.81
929;BME280;451;47.988;7.842;2023-04-08T12:05:21;98953.50;;;13.36;74.11
929;BME280;451;47.988;7.842;2023-04-08T12:14:24;98907.41;;;14.93;74.05
929;BME280;451;47.988;7.842;2023-04-08T12:23:29;98942.41;;;14.30;73.43
929;BME280;451;47.988;7.842;2023-04-08T12:32:32;98944.63;;;14.41;70.39
929;BME280;451;47.988;7.842;2023-04-08T12:41:36;98943.31;;;14.23;64.38
929;BME280;451;47.988;7.842;2023-04-08T12:50:39;98930.84;;;16.03;60.79
929;BME280;451;47.988;7.842;2023-04-08T12:59:44;98867.09;;;16.24;57.75
929;BME280;451;47.988;7.842;2023-04-08T13:08:47;98925.59;;;16.44;54.52
929;BME280;451;47.988;7.842;2023-04-08T13:17:51;98901.28;;;14.57;60.13
929;BME280;451;47.988;7.842;2023-04-08T13:26:54;98901.06;;;13.85;65.34
929;BME280;451;47.988;7.842;2023-04-08T13:35:59;98931.28;;;14.35;65.63
929;BME280;451;47.988;7.842;2023-04-08T13:45:02;98925.53;;;14.17;63.59
929;BME280;451;47.988;7.842;2023-04-08T13:54:07;98917.47;;;13.95;63.47
929;BME280;451;47.988;7.842;2023-04-08T14:03:10;98933.09;;;14.05;64.14
929;BME280;451;47.988;7.842;2023-04-08T14:12:14;98915.19;;;13.09;65.74
929;BME280;451;47.988;7.842;2023-04-08T14:21:17;98935.78;;;13.22;66.52
929;BME280;451;47.988;7.842;2023-04-08T14:30:22;98935.03;;;13.05;65.96
929;BME280;451;47.988;7.842;2023-04-08T14:39:25;98938.56;;;12.59;68.42
929;BME280;451;47.988;7.842;2023-04-08T14:48:30;98936.66;;;13.06;67.52
929;BME280;451;47.988;7.842;2023-04-08T14:57:33;98943.53;;;12.84;67.29
929;BME280;451;47.988;7.842;2023-04-08T15:06:37;98941.44;;;12.80;69.20
929;BME280;451;47.988;7.842;2023-04-08T15:15:41;98939.97;;;13.31;66.64
929;BME280;451;47.988;7.842;2023-04-08T15:24:45;98946.09;;;13.54;66.76
929;BME280;451;47.988;7.842;2023-04-08T15:33:48;98892.09;;;13.11;66.72
929;BME280;451;47.988;7.842;2023-04-08T15:42:52;98940.91;;;13.38;64.41
929;BME280;451;47.988;7.842;2023-04-08T15:51:55;98949.13;;;14.18;61.25
929;BME280;451;47.988;7.842;2023-04-08T16:01:01;98948.81;;;14.65;59.61
929;BME280;451;47.988;7.842;2023-04-08T16:10:05;98953.22;;;14.06;60.74
929;BME280;451;47.988;7.842;2023-04-08T16:19:10;98956.91;;;13.82;61.66
929;BME280;451;47.988;7.842;2023-04-08T16:28:13;98956.41;;;13.18;62.34
929;BME280;451;47.988;7.842;2023-04-08T16:37:18;98952.03;;;13.03;63.03
929;BME280;451;47.988;7.842;2023-04-08T16:46:21;98945.66;;;12.89;64.03
929;BME280;451;47.988;7.842;2023-04-08T16:55:25;98973.59;;;13.14;63.58
929;BME280;451;47.988;7.842;2023-04-08T17:04:29;98981.91;;;12.95;64.54
929;BME280;451;47.988;7.842;2023-04-08T17:13:33;98982.31;;;12.76;66.09
929;BME280;451;47.988;7.842;2023-04-08T17:22:36;98991.03;;;12.84;66.25
929;BME280;451;47.988;7.842;2023-04-08T17:31:41;98980.28;;;12.55;68.52
929;BME280;451;47.988;7.842;2023-04-08T17:40:44;98993.69;;;12.76;67.07
929;BME280;451;47.988;7.842;2023-04-08T17:49:53;98994.09;;;12.57;67.76
929;BME280;451;47.988;7.842;2023-04-08T17:58:56;98985.47;;;12.16;69.59
929;BME280;451;47.988;7.842;2023-04-08T18:08:00;99013.66;;;12.07;69.66
929;BME280;451;47.988;7.842;2023-04-08T18:17:03;99019.09;;;11.98;68.51
929;BME280;451;47.988;7.842;2023-04-08T18:26:07;99034.56;;;12.09;68.33
929;BME280;451;47.988;7.842;2023-04-08T18:35:11;99044.44;;;12.23;68.68
929;BME280;451;47.988;7.842;2023-04-08T18:44:15;99062.41;;;11.79;70.02
929;BME280;451;47.988;7.842;2023-04-08T18:53:18;99064.38;;;11.77;69.43
929;BME280;451;47.988;7.842;2023-04-08T19:02:25;99075.09;;;11.92;69.37
929;BME280;451;47.988;7.842;2023-04-08T19:11:28;99057.91;;;11.71;68.55
929;BME280;451;47.988;7.842;2023-04-08T19:20:33;99051.63;;;11.56;69.65
929;BME280;451;47.988;7.842;2023-04-08T19:29:35;98891.13;;;10.32;70.30
929;BME280;451;47.988;7.842;2023-04-08T19:38:40;99071.72;;;11.49;70.76
929;BME280;451;47.988;7.842;2023-04-08T19:47:43;99089.19;;;11.24;72.08
929;BME280;451;47.988;7.842;2023-04-08T19:56:47;99091.78;;;11.58;71.81
929;BME280;451;47.988;7.842;2023-04-08T20:05:50;99093.03;;;11.30;71.88
929;BME280;451;47.988;7.842;2023-04-08T20:14:55;99084.81;;;11.33;79.96
929;BME280;451;47.988;7.842;2023-04-08T20:23:58;99084.06;;;10.47;86.53
929;BME280;451;47.988;7.842;2023-04-08T20:33:02;99081.38;;;10.03;92.91
929;BME280;451;47.988;7.842;2023-04-08T20:42:05;99080.47;;;10.12;93.93
929;BME280;451;47.988;7.842;2023-04-08T20:51:11;99083.41;;;10.09;93.74
929;BME280;451;47.988;7.842;2023-04-08T21:00:15;99078.59;;;9.87;94.77
929;BME280;451;47.988;7.842;2023-04-08T21:09:20;98979.38;;;9.02;96.38
929;BME280;451;47.988;7.842;2023-04-08T21:18:23;99072.38;;;9.53;96.85
929;BME280;451;47.988;7.842;2023-04-08T21:27:28;99071.63;;;9.43;96.41
929;BME280;451;47.988;7.842;2023-04-08T21:36:31;99085.50;;;9.53;97.08
929;BME280;451;47.988;7.842;2023-04-08T21:45:35;99065.66;;;9.23;96.19
929;BME280;451;47.988;7.842;2023-04-08T21:54:38;99082.03;;;9.35;95.30
929;BME280;451;47.988;7.842;2023-04-08T22:03:43;99087.63;;;9.22;95.49
929;BME280;451;47.988;7.842;2023-04-08T22:12:46;99074.44;;;9.31;95.72
929;BME280;451;47.988;7.842;2023-04-08T22:21:50;99073.28;;;9.16;95.14
929;BME280;451;47.988;7.842;2023-04-08T22:30:53;99077.47;;;9.09;95.73
929;BME280;451;47.988;7.842;2023-04-08T22:39:59;99092.06;;;9.39;93.31
929;BME280;451;47.988;7.842;2023-04-08T22:49:04;99046.41;;;9.50;89.96
929;BME280;451;47.988;7.842;2023-04-08T22:58:08;99071.31;;;9.46;90.06
929;BME280;451;47.988;7.842;2023-04-08T23:07:11;99050.75;;;9.23;89.40
929;BME280;451;47.988;7.842;2023-04-08T23:16:15;99061.00;;;9.17;89.59
929;BME280;451;47.988;7.842;2023-04-08T23:25:18;99067.00;;;9.00;91.40
929;BME280;451;47.988;7.842;2023-04-08T23:34:23;99072.50;;;8.79;92.91
929;BME280;451;47.988;7.842;2023-04-08T23:43:26;99070.44;;;8.17;97.96
929;BME280;451;47.988;7.842;2023-04-08T23:52:30;99063.84;;;7.74;100.00
